Time;durP1;ratioP1;P1;durP2;ratioP2;P2;SDS_P1;SDS_P2;PMS_P1;PMS_P2;Temp;Humidity;BMP_temperature;BMP_pressure;BME280_temperature;BME280_humidity;BME280_pressure;Samples;Min_cycle;Max_cycle;Signal;HPM_P1;HPM_P2
2023/12/27 00:00:37;;;;;;;6.70;3.45;;;7.40;99.90;;;;;;5038691;28;20538;-21
2023/12/27 00:03:04;;;;;;;7.57;3.85;;;7.40;99.90;;;;;;5038701;28;20060;-19
2023/12/27 00:05:33;;;;;;;8.30;3.70;;;7.40;99.90;;;;;;5038757;28;20431;-19
2023/12/27 00:07:59;;;;;;;7.60;3.55;;;7.40;99.90;;;;;;5039944;28;20395;-19
2023/12/27 00:10:24;;;;;;;7.63;3.50;;;7.40;99.90;;;;;;5023203;28;20033;-18
2023/12/27 00:12:50;;;;;;;6.72;3.45;;;7.40;99.90;;;;;;5038005;28;20029;-23
2023/12/27 00:15:16;;;;;;;7.70;3.60;;;7.40;99.90;;;;;;5038256;28;20030;-23
2023/12/27 00:17:42;;;;;;;7.03;3.78;;;7.40;99.90;;;;;;5039711;28;20029;-23
2023/12/27 00:20:09;;;;;;;8.38;4.00;;;7.40;99.90;;;;;;5034195;28;20398;-24
2023/12/27 00:22:35;;;;;;;5.40;3.50;;;7.40;99.90;;;;;;5042951;28;20018;-21
2023/12/27 00:25:01;;;;;;;6.15;3.30;;;7.40;99.90;;;;;;5035768;28;20521;-23
2023/12/27 00:27:26;;;;;;;7.43;3.37;;;7.40;99.90;;;;;;5037968;28;20549;-23
2023/12/27 00:29:52;;;;;;;6.15;3.28;;;7.40;99.90;;;;;;5042541;28;20107;-24
2023/12/27 00:32:18;;;;;;;8.70;3.60;;;7.40;99.90;;;;;;5039300;28;20530;-24
2023/12/27 00:34:44;;;;;;;7.20;3.60;;;7.40;99.90;;;;;;5019472;28;20598;-27
2023/12/27 00:37:10;;;;;;;8.20;3.38;;;7.40;99.90;;;;;;5037435;28;20491;-27
2023/12/27 00:39:36;;;;;;;7.93;3.37;;;7.40;99.90;;;;;;5038007;28;20558;-25
2023/12/27 00:42:02;;;;;;;7.88;3.00;;;7.40;99.90;;;;;;5037315;28;20559;-26
2023/12/27 00:44:28;;;;;;;6.63;3.40;;;7.40;99.90;;;;;;5037579;28;20686;-23
2023/12/27 00:46:54;;;;;;;5.67;3.07;;;7.40;99.90;;;;;;5035007;28;20449;-25
2023/12/27 00:49:21;;;;;;;6.68;3.25;;;7.40;99.90;;;;;;5053978;28;20032;-28
2023/12/27 00:51:47;;;;;;;5.32;2.85;;;7.40;99.90;;;;;;5037305;28;20032;-26
2023/12/27 00:54:13;;;;;;;5.97;2.63;;;7.50;99.90;;;;;;5038179;28;20409;-27
2023/12/27 00:56:39;;;;;;;5.83;2.60;;;7.50;99.90;;;;;;5026595;28;20033;-23
2023/12/27 00:59:06;;;;;;;5.53;2.55;;;7.50;99.90;;;;;;5040582;28;20036;-27
2023/12/27 01:01:32;;;;;;;6.43;2.80;;;7.50;99.90;;;;;;5035712;28;20051;-21
2023/12/27 01:03:58;;;;;;;5.53;2.60;;;7.50;99.90;;;;;;5036924;28;20029;-23
2023/12/27 01:06:24;;;;;;;5.25;2.65;;;7.60;99.90;;;;;;5034468;28;20021;-23
2023/12/27 01:08:50;;;;;;;5.67;2.60;;;7.60;99.90;;;;;;5038596;28;20025;-23
2023/12/27 01:11:16;;;;;;;7.53;2.80;;;7.60;99.90;;;;;;5037318;28;20055;-26
2023/12/27 01:13:42;;;;;;;5.97;2.67;;;7.60;99.90;;;;;;5036267;28;20029;-22
2023/12/27 01:16:08;;;;;;;4.90;2.37;;;7.60;99.90;;;;;;5023204;28;20044;-24
2023/12/27 01:18:33;;;;;;;5.15;2.58;;;7.60;99.90;;;;;;5037581;28;20030;-22
2023/12/27 01:20:59;;;;;;;4.93;2.50;;;7.70;99.90;;;;;;5035234;28;20033;-22
2023/12/27 01:23:27;;;;;;;7.65;3.00;;;7.70;99.90;;;;;;5037923;28;20029;-26
2023/12/27 01:25:52;;;;;;;5.68;2.42;;;7.70;99.90;;;;;;5034187;28;20030;-24
2023/12/27 01:28:18;;;;;;;6.80;2.60;;;7.70;99.90;;;;;;5037053;28;20036;-24
2023/12/27 01:30:44;;;;;;;6.03;2.40;;;7.70;99.90;;;;;;5037147;28;20025;-25
2023/12/27 01:33:10;;;;;;;6.40;2.88;;;7.70;99.90;;;;;;5037461;28;20336;-22
2023/12/27 01:35:36;;;;;;;6.70;2.80;;;7.70;99.90;;;;;;5037208;28;20619;-22
2023/12/27 01:38:01;;;;;;;5.47;2.88;;;7.70;99.90;;;;;;5035880;28;20110;-25
2023/12/27 01:40:27;;;;;;;6.32;2.60;;;7.80;99.90;;;;;;5023562;28;20044;-25
2023/12/27 01:42:53;;;;;;;6.60;3.10;;;7.80;99.90;;;;;;5036463;28;20040;-24
2023/12/27 01:45:19;;;;;;;5.15;2.60;;;7.80;99.90;;;;;;5034680;28;20017;-25
2023/12/27 01:47:46;;;;;;;5.80;2.63;;;7.80;99.90;;;;;;5036083;28;20546;-23
2023/12/27 01:50:12;;;;;;;5.18;2.70;;;7.80;99.90;;;;;;5037066;28;20037;-22
2023/12/27 01:52:41;;;;;;;6.88;2.83;;;7.80;99.90;;;;;;5036636;28;20032;-26
2023/12/27 01:55:09;;;;;;;6.25;2.42;;;7.80;99.90;;;;;;5034124;28;20032;-23
2023/12/27 01:57:38;;;;;;;6.82;2.72;;;7.90;99.90;;;;;;5032924;28;20017;-24
2023/12/27 02:00:08;;;;;;;6.60;2.60;;;7.90;99.90;;;;;;5029595;28;20107;-22
2023/12/27 02:02:34;;;;;;;6.63;2.60;;;7.90;99.90;;;;;;5038141;28;20029;-22
2023/12/27 02:05:00;;;;;;;7.18;3.08;;;7.90;99.90;;;;;;5036972;28;20479;-24
2023/12/27 02:07:26;;;;;;;7.73;2.63;;;7.90;99.90;;;;;;5036554;28;20052;-27
2023/12/27 02:09:52;;;;;;;7.22;2.53;;;7.90;99.90;;;;;;5017212;28;20417;-21
2023/12/27 02:12:26;;;;;;;7.18;2.67;;;7.00;99.90;;;;;;5023118;28;20490;-23
2023/12/27 02:14:52;;;;;;;4.97;2.50;;;8.00;99.90;;;;;;5032678;28;20123;-24
2023/12/27 02:17:19;;;;;;;7.15;2.70;;;8.10;99.90;;;;;;5034501;28;20789;-25
2023/12/27 02:19:46;;;;;;;7.13;2.90;;;8.10;99.90;;;;;;5035656;28;20526;-22
2023/12/27 02:22:17;;;;;;;5.28;2.50;;;8.10;99.90;;;;;;5034672;28;20375;-24
2023/12/27 02:24:44;;;;;;;5.90;2.58;;;8.10;99.90;;;;;;5035704;28;20375;-23
2023/12/27 02:27:10;;;;;;;5.90;2.58;;;8.20;99.90;;;;;;5035913;28;20511;-22
2023/12/27 02:29:36;;;;;;;6.20;2.53;;;8.20;99.90;;;;;;5037447;28;20025;-22
2023/12/27 02:32:05;;;;;;;5.55;2.55;;;8.30;99.90;;;;;;5020024;28;20394;-29
2023/12/27 02:34:31;;;;;;;6.60;2.50;;;8.30;99.90;;;;;;5035450;28;20025;-23
2023/12/27 02:36:57;;;;;;;5.13;2.40;;;8.30;99.90;;;;;;5037221;28;20037;-25
2023/12/27 02:39:23;;;;;;;7.15;2.75;;;8.30;99.90;;;;;;5036302;28;20037;-24
2023/12/27 02:41:49;;;;;;;6.57;2.47;;;8.40;99.90;;;;;;5035756;28;20051;-22
2023/12/27 02:44:14;;;;;;;6.70;2.60;;;8.40;99.90;;;;;;5038098;28;20471;-21
2023/12/27 02:46:40;;;;;;;4.82;2.08;;;8.40;99.90;;;;;;5041081;28;20554;-23
2023/12/27 02:49:06;;;;;;;5.50;2.90;;;8.40;99.90;;;;;;5037270;28;20107;-21
2023/12/27 02:51:32;;;;;;;7.10;2.57;;;8.40;99.90;;;;;;5039495;28;20028;-22
2023/12/27 02:53:57;;;;;;;4.72;2.30;;;8.50;99.90;;;;;;5038168;28;20052;-21
2023/12/27 02:56:23;;;;;;;6.57;2.50;;;8.50;99.90;;;;;;5042090;28;20071;-22
2023/12/27 02:58:49;;;;;;;6.15;2.35;;;8.50;99.90;;;;;;5038570;28;20487;-24
2023/12/27 03:01:15;;;;;;;6.77;2.57;;;8.50;99.90;;;;;;5008599;28;20412;-22
2023/12/27 03:03:41;;;;;;;4.53;2.38;;;8.50;99.90;;;;;;5040643;28;20497;-24
2023/12/27 03:06:06;;;;;;;4.85;2.53;;;8.60;99.90;;;;;;5041967;28;20025;-22
2023/12/27 03:08:35;;;;;;;8.43;2.67;;;8.50;99.90;;;;;;5043719;28;20030;-27
2023/12/27 03:11:01;;;;;;;5.53;2.50;;;8.60;99.90;;;;;;5036046;28;20037;-26
2023/12/27 03:13:26;;;;;;;8.13;2.80;;;8.60;99.90;;;;;;5042526;28;20037;-23
2023/12/27 03:15:52;;;;;;;5.07;2.80;;;8.60;99.90;;;;;;5039710;28;20558;-24
2023/12/27 03:18:18;;;;;;;5.00;2.75;;;8.60;99.90;;;;;;5041154;28;20525;-26
2023/12/27 03:20:44;;;;;;;7.33;2.90;;;8.60;99.90;;;;;;5038073;28;20475;-26
2023/12/27 03:23:10;;;;;;;7.57;2.70;;;8.60;99.90;;;;;;5039186;28;20421;-22
2023/12/27 03:25:36;;;;;;;5.32;2.70;;;8.60;99.90;;;;;;5038029;28;20029;-22
2023/12/27 03:28:02;;;;;;;5.30;2.57;;;8.60;99.90;;;;;;5040830;28;20052;-20
2023/12/27 03:30:27;;;;;;;7.03;2.67;;;8.60;99.90;;;;;;5040239;28;20040;-20
2023/12/27 03:32:53;;;;;;;5.80;2.50;;;8.60;99.90;;;;;;5038766;28;20360;-23
2023/12/27 03:35:19;;;;;;;6.45;2.50;;;8.60;99.90;;;;;;5038635;28;20539;-20
2023/12/27 03:37:45;;;;;;;5.87;2.47;;;8.60;99.90;;;;;;5037891;28;20051;-19
2023/12/27 03:40:11;;;;;;;6.55;2.50;;;10.90;99.90;;;;;;5039338;28;20029;-19
2023/12/27 03:42:37;;;;;;;5.78;2.90;;;8.50;99.90;;;;;;5043414;28;20105;-15
2023/12/27 03:45:04;;;;;;;5.43;2.40;;;8.50;99.90;;;;;;5038243;28;20483;-16
2023/12/27 03:47:30;;;;;;;5.97;2.83;;;8.50;99.90;;;;;;5037912;28;20072;-16
2023/12/27 03:49:55;;;;;;;6.68;2.70;;;8.50;99.90;;;;;;5036638;28;20029;-17
2023/12/27 03:52:21;;;;;;;9.53;2.77;;;8.50;99.90;;;;;;5037398;28;20029;-16
2023/12/27 03:54:47;;;;;;;6.07;2.80;;;8.50;99.90;;;;;;5040173;28;20032;-16
2023/12/27 03:57:13;;;;;;;4.43;2.40;;;8.50;99.90;;;;;;5010210;28;20079;-17
2023/12/27 03:59:39;;;;;;;5.63;2.45;;;8.50;99.90;;;;;;5039721;28;20037;-18
2023/12/27 04:02:05;;;;;;;7.05;2.70;;;8.50;99.90;;;;;;5039808;28;20032;-16
2023/12/27 04:04:31;;;;;;;5.23;2.47;;;8.50;99.90;;;;;;5037119;28;20128;-15
2023/12/27 04:06:57;;;;;;;5.78;2.65;;;8.50;99.90;;;;;;5037295;28;20055;-16
2023/12/27 04:09:23;;;;;;;6.30;2.30;;;8.50;99.90;;;;;;5036853;28;20025;-16
2023/12/27 04:11:48;;;;;;;6.37;2.60;;;8.60;99.90;;;;;;5038050;28;20829;-16
2023/12/27 04:14:15;;;;;;;5.15;2.58;;;8.60;99.90;;;;;;5036612;28;20052;-16
2023/12/27 04:16:41;;;;;;;6.20;2.37;;;8.60;99.90;;;;;;5037549;28;20048;-16
2023/12/27 04:19:07;;;;;;;6.13;2.33;;;8.60;99.90;;;;;;5039166;28;20037;-16
2023/12/27 04:21:33;;;;;;;5.70;2.30;;;8.60;99.90;;;;;;5025996;28;20037;-15
2023/12/27 04:23:59;;;;;;;5.35;2.47;;;8.60;99.90;;;;;;5037007;28;20050;-15
2023/12/27 04:26:25;;;;;;;4.23;1.90;;;8.60;99.90;;;;;;5034252;28;20034;-16
2023/12/27 04:28:51;;;;;;;5.15;2.30;;;8.70;99.90;;;;;;5037567;28;20029;-16
2023/12/27 04:31:17;;;;;;;5.67;2.73;;;8.70;99.90;;;;;;5036828;28;20041;-16
2023/12/27 04:33:43;;;;;;;5.10;2.05;;;8.70;99.90;;;;;;5018928;28;20033;-16
2023/12/27 04:36:08;;;;;;;6.30;2.10;;;8.80;99.90;;;;;;5039439;28;20083;-15
2023/12/27 04:38:34;;;;;;;5.68;1.98;;;8.80;99.90;;;;;;5040000;28;20029;-16
2023/12/27 04:41:06;;;;;;;3.67;1.80;;;8.80;99.90;;;;;;5035943;28;20680;-16
2023/12/27 04:43:32;;;;;;;5.03;2.20;;;8.90;99.90;;;;;;5036607;28;20017;-15
2023/12/27 04:45:58;;;;;;;5.63;2.15;;;8.90;99.90;;;;;;5038738;28;20037;-16
2023/12/27 04:48:24;;;;;;;5.65;2.30;;;8.90;99.90;;;;;;5038323;28;20422;-15
2023/12/27 04:50:49;;;;;;;6.13;2.03;;;8.90;99.90;;;;;;5034550;28;20059;-16
2023/12/27 04:53:15;;;;;;;5.15;1.95;;;9.00;99.90;;;;;;5035983;28;20029;-20
2023/12/27 04:55:41;;;;;;;5.10;2.20;;;9.00;99.90;;;;;;5036745;28;20032;-19
2023/12/27 04:58:06;;;;;;;6.43;2.25;;;9.10;99.90;;;;;;5035515;28;20024;-19
2023/12/27 05:00:32;;;;;;;5.23;2.90;;;9.00;99.90;;;;;;5035569;28;20054;-20
2023/12/27 05:02:58;;;;;;;5.53;2.28;;;9.00;99.90;;;;;;5039731;28;20641;-20
2023/12/27 05:05:24;;;;;;;5.60;2.10;;;9.00;99.90;;;;;;5039277;28;20103;-21
2023/12/27 05:07:50;;;;;;;4.93;2.22;;;9.10;99.90;;;;;;5037129;28;20357;-21
2023/12/27 05:10:15;;;;;;;5.13;1.80;;;9.10;99.90;;;;;;5018789;28;20044;-23
2023/12/27 05:12:41;;;;;;;5.55;2.25;;;9.10;99.90;;;;;;5041173;28;20040;-20
2023/12/27 05:15:07;;;;;;;5.03;2.13;;;9.10;99.90;;;;;;5037920;28;20029;-20
2023/12/27 05:17:33;;;;;;;4.50;1.88;;;9.10;99.90;;;;;;5036241;28;20402;-21
2023/12/27 05:19:59;;;;;;;5.10;1.92;;;9.20;99.90;;;;;;5003841;28;20041;-20
2023/12/27 05:22:27;;;;;;;3.43;2.07;;;9.20;99.90;;;;;;5042880;28;20069;-21
2023/12/27 05:24:52;;;;;;;3.60;1.88;;;9.20;99.90;;;;;;5040887;28;20037;-19
2023/12/27 05:27:18;;;;;;;4.22;2.00;;;9.20;99.90;;;;;;5035481;28;20236;-20
2023/12/27 05:29:44;;;;;;;6.17;2.10;;;9.30;99.90;;;;;;5036069;28;20028;-21
2023/12/27 05:32:11;;;;;;;5.57;1.90;;;9.30;99.90;;;;;;5040626;28;20021;-21
2023/12/27 05:34:37;;;;;;;6.38;2.38;;;9.30;99.90;;;;;;5041181;28;20029;-19
2023/12/27 05:37:03;;;;;;;4.75;2.28;;;9.40;99.90;;;;;;5037773;28;20099;-20
2023/12/27 05:39:28;;;;;;;5.20;2.20;;;9.40;99.90;;;;;;5035393;28;20565;-19
2023/12/27 05:41:55;;;;;;;4.50;2.10;;;9.40;99.90;;;;;;5033713;28;20065;-20
2023/12/27 05:44:20;;;;;;;4.45;2.10;;;9.40;99.90;;;;;;5036235;28;20521;-22
2023/12/27 05:46:46;;;;;;;4.03;2.20;;;9.40;99.90;;;;;;5036581;28;20395;-19
2023/12/27 05:49:12;;;;;;;4.07;2.10;;;9.50;99.90;;;;;;5035866;28;20103;-18
2023/12/27 05:51:39;;;;;;;6.07;1.95;;;9.50;99.90;;;;;;5036412;28;20044;-20
2023/12/27 05:54:05;;;;;;;3.85;1.98;;;9.60;99.90;;;;;;5041798;28;20604;-21
2023/12/27 05:56:31;;;;;;;3.70;1.80;;;9.60;99.90;;;;;;5036665;28;20033;-22
2023/12/27 05:58:57;;;;;;;4.50;2.10;;;9.60;99.90;;;;;;5034043;28;20151;-19
2023/12/27 06:01:23;;;;;;;3.38;1.90;;;9.60;99.90;;;;;;5036371;28;20596;-21
2023/12/27 06:03:48;;;;;;;4.80;1.60;;;9.60;99.90;;;;;;5035230;28;20033;-17
2023/12/27 06:06:14;;;;;;;3.63;1.52;;;9.70;99.90;;;;;;5035545;28;20025;-15
2023/12/27 06:08:40;;;;;;;4.37;1.70;;;9.70;99.90;;;;;;5035908;28;20035;-17
2023/12/27 06:11:11;;;;;;;4.60;1.80;;;9.70;99.90;;;;;;5031990;28;20034;-15
2023/12/27 06:13:38;;;;;;;3.75;1.70;;;9.80;99.90;;;;;;5035224;28;20036;-15
2023/12/27 06:16:05;;;;;;;2.93;1.50;;;9.80;99.90;;;;;;5037496;28;20052;-16
2023/12/27 06:18:30;;;;;;;3.63;1.65;;;9.80;99.90;;;;;;5041307;28;20258;-16
2023/12/27 06:20:56;;;;;;;3.60;1.75;;;9.80;99.90;;;;;;5041572;28;20056;-15
2023/12/27 06:23:22;;;;;;;2.93;1.57;;;9.90;99.90;;;;;;5042559;28;20371;-16
2023/12/27 06:25:48;;;;;;;2.65;1.55;;;9.90;99.90;;;;;;5039408;28;20127;-16
2023/12/27 06:28:13;;;;;;;2.63;1.23;;;9.90;99.90;;;;;;5039390;28;20041;-16
2023/12/27 06:30:39;;;;;;;3.30;1.43;;;9.90;99.90;;;;;;5041189;28;20046;-15
2023/12/27 06:33:06;;;;;;;3.08;1.60;;;10.00;99.90;;;;;;5041234;28;21301;-16
2023/12/27 06:35:32;;;;;;;3.03;1.50;;;10.00;99.90;;;;;;5039370;28;20021;-16
2023/12/27 06:37:58;;;;;;;2.70;1.23;;;10.10;99.90;;;;;;5040183;28;20018;-16
2023/12/27 06:40:24;;;;;;;2.13;1.10;;;10.10;99.90;;;;;;5038919;28;20025;-16
2023/12/27 06:42:50;;;;;;;2.63;1.30;;;10.20;99.90;;;;;;5039523;28;20509;-15
2023/12/27 06:45:15;;;;;;;2.33;1.25;;;10.20;99.90;;;;;;5040991;28;20026;-15
2023/12/27 06:47:41;;;;;;;2.80;1.40;;;10.20;99.90;;;;;;5038860;28;20360;-16
2023/12/27 06:50:07;;;;;;;1.63;1.10;;;10.30;99.90;;;;;;5027212;28;20037;-16
2023/12/27 06:52:33;;;;;;;2.85;1.40;;;10.30;99.90;;;;;;5040655;28;20057;-16
2023/12/27 06:54:59;;;;;;;1.90;1.10;;;10.30;99.90;;;;;;5037596;28;20042;-15
2023/12/27 06:57:25;;;;;;;1.87;1.23;;;10.40;99.90;;;;;;5039214;28;20026;-16
2023/12/27 06:59:50;;;;;;;2.53;1.20;;;10.40;99.90;;;;;;5038934;28;20083;-16
2023/12/27 07:02:16;;;;;;;1.80;1.13;;;10.40;99.90;;;;;;5040663;28;20386;-15
2023/12/27 07:04:43;;;;;;;2.30;1.20;;;10.50;99.90;;;;;;5039025;28;20275;-16
2023/12/27 07:07:09;;;;;;;1.65;1.10;;;10.50;99.90;;;;;;5039198;28;20044;-16
2023/12/27 07:09:35;;;;;;;2.27;1.20;;;10.50;99.90;;;;;;5037251;28;20032;-17
2023/12/27 07:12:00;;;;;;;2.97;1.10;;;10.60;99.90;;;;;;5041465;28;20326;-16
2023/12/27 07:14:27;;;;;;;1.50;0.80;;;10.60;99.90;;;;;;5040638;28;20376;-15
2023/12/27 07:16:53;;;;;;;1.10;0.90;;;10.70;99.90;;;;;;5039968;28;20498;-16
2023/12/27 07:19:19;;;;;;;1.87;0.90;;;10.60;99.90;;;;;;5039610;28;20025;-15
2023/12/27 07:21:46;;;;;;;2.22;0.90;;;10.70;99.90;;;;;;5037716;28;20608;-15
2023/12/27 07:24:11;;;;;;;2.15;0.98;;;10.70;99.90;;;;;;5033641;28;20484;-16
2023/12/27 07:26:37;;;;;;;1.87;1.10;;;10.70;99.90;;;;;;5020039;28;20025;-16
2023/12/27 07:29:03;;;;;;;4.18;1.10;;;10.70;99.90;;;;;;5040244;28;20028;-16
2023/12/27 07:31:29;;;;;;;1.55;1.00;;;10.70;99.90;;;;;;5041639;28;20100;-16
2023/12/27 07:33:55;;;;;;;1.13;0.90;;;10.80;99.90;;;;;;5039585;28;20035;-16
2023/12/27 07:36:21;;;;;;;2.03;0.95;;;10.80;99.90;;;;;;5038080;28;20021;-16
2023/12/27 07:38:47;;;;;;;1.30;0.77;;;10.80;99.90;;;;;;5037429;28;20801;-16
2023/12/27 07:41:12;;;;;;;1.48;0.80;;;10.80;99.90;;;;;;5042308;28;20056;-16
2023/12/27 07:43:41;;;;;;;0.93;0.70;;;10.80;99.90;;;;;;5040354;28;20052;-16
2023/12/27 07:46:08;;;;;;;2.17;0.80;;;10.80;99.90;;;;;;5036741;28;20393;-15
2023/12/27 07:48:33;;;;;;;2.53;0.90;;;10.90;99.90;;;;;;5034812;28;20102;-16
2023/12/27 07:50:59;;;;;;;0.90;0.63;;;10.80;99.90;;;;;;5037536;28;20037;-17
2023/12/27 07:53:25;;;;;;;1.77;0.82;;;10.90;99.90;;;;;;5039479;28;20025;-17
2023/12/27 07:55:51;;;;;;;1.02;0.70;;;10.90;99.90;;;;;;5037905;28;20452;-16
2023/12/27 07:58:17;;;;;;;2.23;0.77;;;10.90;99.90;;;;;;5040282;28;20502;-16
2023/12/27 08:00:43;;;;;;;1.13;0.70;;;11.00;99.90;;;;;;5037151;28;20561;-17
2023/12/27 08:03:08;;;;;;;1.93;0.87;;;10.90;99.90;;;;;;5039584;28;20402;-16
2023/12/27 08:05:38;;;;;;;1.20;0.70;;;11.00;99.90;;;;;;5037796;28;20449;-16
2023/12/27 08:08:04;;;;;;;0.82;0.68;;;11.00;99.90;;;;;;5038381;28;20041;-16
2023/12/27 08:10:31;;;;;;;1.00;0.73;;;11.00;99.90;;;;;;5038330;28;20425;-17
2023/12/27 08:12:58;;;;;;;1.80;0.70;;;11.00;99.90;;;;;;5040258;28;20021;-16
2023/12/27 08:15:24;;;;;;;0.93;0.70;;;11.00;99.90;;;;;;5035694;28;20111;-17
2023/12/27 08:17:50;;;;;;;0.77;0.60;;;11.10;99.90;;;;;;5038812;28;20578;-20
2023/12/27 08:20:16;;;;;;;1.63;0.63;;;11.10;99.90;;;;;;5042080;28;20048;-16
2023/12/27 08:22:41;;;;;;;1.00;0.70;;;11.20;99.90;;;;;;5038225;28;20036;-17
2023/12/27 08:25:12;;;;;;;1.87;0.70;;;11.20;99.90;;;;;;5011787;28;20044;-22
2023/12/27 08:27:38;;;;;;;0.70;0.60;;;11.20;99.90;;;;;;5036470;28;20025;-19
2023/12/27 08:30:05;;;;;;;1.00;0.80;;;11.20;99.90;;;;;;5008113;28;20450;-21
2023/12/27 08:32:31;;;;;;;1.15;0.70;;;11.30;99.90;;;;;;5022777;28;20321;-21
2023/12/27 08:34:56;;;;;;;1.30;0.70;;;11.30;99.90;;;;;;5037890;28;20040;-16
2023/12/27 08:37:22;;;;;;;0.77;0.60;;;11.30;99.90;;;;;;5036798;28;20321;-16
2023/12/27 08:39:48;;;;;;;0.63;0.60;;;11.40;99.90;;;;;;5038711;28;20368;-16
2023/12/27 08:42:14;;;;;;;0.80;0.60;;;11.40;99.90;;;;;;5035172;28;20479;-16
2023/12/27 08:44:39;;;;;;;0.60;0.57;;;11.40;99.90;;;;;;5030473;28;20021;-15
2023/12/27 08:47:05;;;;;;;1.77;0.70;;;11.40;99.90;;;;;;5035332;28;20466;-16
2023/12/27 08:49:31;;;;;;;0.77;0.60;;;11.40;99.90;;;;;;5038076;28;20037;-16
2023/12/27 08:51:57;;;;;;;1.53;0.70;;;11.40;99.90;;;;;;5038168;28;20443;-16
2023/12/27 08:54:22;;;;;;;0.60;0.60;;;11.50;99.90;;;;;;5038430;28;20454;-16
2023/12/27 08:56:48;;;;;;;2.70;0.83;;;11.50;99.90;;;;;;5041009;28;20094;-16
2023/12/27 08:59:14;;;;;;;3.10;1.00;;;11.50;99.90;;;;;;5035398;28;20172;-16
2023/12/27 09:01:40;;;;;;;1.00;0.80;;;11.50;99.90;;;;;;5038353;28;20556;-16
2023/12/27 09:04:05;;;;;;;2.00;0.90;;;11.60;99.90;;;;;;5034193;28;20353;-16
2023/12/27 09:06:31;;;;;;;1.00;0.80;;;11.60;99.90;;;;;;5036869;28;20057;-16
2023/12/27 09:08:57;;;;;;;1.70;0.80;;;11.60;99.90;;;;;;5020272;28;20040;-18
2023/12/27 09:11:23;;;;;;;1.30;0.80;;;11.60;99.90;;;;;;5038366;28;20029;-17
2023/12/27 09:13:48;;;;;;;0.93;0.73;;;11.60;99.90;;;;;;5019656;28;20192;-17
2023/12/27 09:16:14;;;;;;;3.00;1.03;;;11.60;99.90;;;;;;5037550;28;20033;-17
2023/12/27 09:18:40;;;;;;;1.10;0.90;;;11.70;99.90;;;;;;5035254;28;20053;-16
2023/12/27 09:21:06;;;;;;;2.17;1.07;;;11.70;99.90;;;;;;5037027;28;20037;-17
2023/12/27 09:23:31;;;;;;;1.52;1.00;;;11.70;99.90;;;;;;5038692;28;20033;-16
2023/12/27 09:25:57;;;;;;;2.05;1.20;;;11.70;99.90;;;;;;5035568;28;20445;-16
2023/12/27 09:28:25;;;;;;;1.77;0.90;;;11.70;99.90;;;;;;5025868;28;20033;-16
2023/12/27 09:30:52;;;;;;;2.13;0.98;;;11.70;99.90;;;;;;5036167;28;20123;-16
2023/12/27 09:33:17;;;;;;;2.67;1.17;;;11.80;99.90;;;;;;5037390;28;20279;-17
2023/12/27 09:35:43;;;;;;;1.50;0.97;;;11.80;99.90;;;;;;5035112;28;20045;-18
2023/12/27 09:38:09;;;;;;;1.92;1.20;;;11.80;99.90;;;;;;5036948;28;20184;-16
2023/12/27 09:40:35;;;;;;;1.77;1.10;;;11.80;99.90;;;;;;5038304;28;20048;-17
2023/12/27 09:43:04;;;;;;;3.13;1.40;;;11.80;99.90;;;;;;5034420;28;20112;-20
2023/12/27 09:45:34;;;;;;;2.10;1.20;;;11.80;99.90;;;;;;5037441;28;20540;-21
2023/12/27 09:48:02;;;;;;;2.95;1.20;;;11.80;99.90;;;;;;5036963;28;20040;-21
2023/12/27 09:50:28;;;;;;;1.98;1.17;;;11.80;99.90;;;;;;5030938;28;20112;-22
2023/12/27 09:52:56;;;;;;;3.07;1.27;;;11.90;99.90;;;;;;5018109;28;20032;-22
2023/12/27 09:55:23;;;;;;;2.63;1.10;;;11.90;99.90;;;;;;5033693;28;20029;-21
2023/12/27 09:57:49;;;;;;;4.00;1.50;;;11.90;99.90;;;;;;5029300;28;20038;-21
2023/12/27 10:00:16;;;;;;;2.78;1.50;;;11.90;99.90;;;;;;5027405;28;20056;-24
2023/12/27 10:02:46;;;;;;;3.30;1.60;;;11.90;99.90;;;;;;5037757;28;20045;-21
2023/12/27 10:05:19;;;;;;;2.67;1.70;;;11.90;99.90;;;;;;5036677;28;20112;-19
2023/12/27 10:07:45;;;;;;;4.57;1.73;;;11.90;99.90;;;;;;5035181;28;20028;-21
2023/12/27 10:10:11;;;;;;;2.00;1.38;;;11.90;99.90;;;;;;5031008;28;20033;-24
2023/12/27 10:12:37;;;;;;;2.50;1.40;;;12.00;99.90;;;;;;5018019;28;20221;-21
2023/12/27 10:15:04;;;;;;;2.37;1.47;;;12.00;99.90;;;;;;5036368;28;20043;-24
2023/12/27 10:17:31;;;;;;;3.38;1.67;;;12.00;99.90;;;;;;5029630;28;20044;-20
2023/12/27 10:19:56;;;;;;;2.33;1.55;;;12.00;99.90;;;;;;5037513;28;20025;-24
2023/12/27 10:22:23;;;;;;;3.35;1.65;;;12.00;99.90;;;;;;5023320;28;20086;-21
2023/12/27 10:24:48;;;;;;;3.33;1.90;;;12.10;99.90;;;;;;5033250;28;20025;-22
2023/12/27 10:27:14;;;;;;;3.42;1.70;;;11.50;99.90;;;;;;5037340;28;20021;-23
2023/12/27 10:29:48;;;;;;;4.18;1.92;;;12.10;99.90;;;;;;5033998;28;20029;-22
2023/12/27 10:32:18;;;;;;;2.03;1.50;;;12.10;99.90;;;;;;5033608;28;20086;-21
2023/12/27 10:34:45;;;;;;;3.05;1.70;;;12.10;99.90;;;;;;5018749;28;20030;-23
2023/12/27 10:37:12;;;;;;;3.55;2.08;;;12.20;99.90;;;;;;5033529;28;20479;-21
2023/12/27 10:39:45;;;;;;;3.70;1.80;;;12.20;99.90;;;;;;5032845;28;20032;-22
2023/12/27 10:42:16;;;;;;;4.03;1.92;;;12.20;99.90;;;;;;5031457;28;20038;-20
2023/12/27 10:44:46;;;;;;;2.60;1.60;;;12.20;99.90;;;;;;5030773;28;20051;-22
2023/12/27 10:47:17;;;;;;;3.47;1.65;;;12.20;99.90;;;;;;5031168;28;20017;-22
2023/12/27 10:49:47;;;;;;;4.78;1.90;;;12.20;99.90;;;;;;5034415;28;20029;-21
2023/12/27 10:52:15;;;;;;;3.70;1.75;;;12.30;99.90;;;;;;5035285;28;20021;-20
2023/12/27 10:54:46;;;;;;;3.88;2.08;;;12.30;99.90;;;;;;5032100;28;20029;-23
2023/12/27 10:57:19;;;;;;;3.97;1.80;;;12.30;99.90;;;;;;5032687;28;20030;-20
2023/12/27 10:59:47;;;;;;;6.28;2.58;;;12.40;99.90;;;;;;5032022;28;20068;-22
2023/12/27 11:02:13;;;;;;;3.35;1.90;;;12.40;99.90;;;;;;5039608;28;20648;-21
2023/12/27 11:04:41;;;;;;;5.22;1.77;;;12.40;99.90;;;;;;5037021;28;20021;-21
2023/12/27 11:07:08;;;;;;;3.30;1.90;;;12.40;99.90;;;;;;5037324;28;20656;-23
2023/12/27 11:09:38;;;;;;;5.83;2.10;;;12.40;99.90;;;;;;5037771;28;20025;-23
2023/12/27 11:12:07;;;;;;;3.60;1.70;;;12.40;99.90;;;;;;5033297;28;20039;-27
2023/12/27 11:14:36;;;;;;;3.08;1.65;;;12.50;99.90;;;;;;5010079;28;20407;-24
2023/12/27 11:17:05;;;;;;;2.55;1.60;;;12.40;99.90;;;;;;5034626;28;20105;-23
2023/12/27 11:19:33;;;;;;;3.13;1.55;;;12.50;99.90;;;;;;5041391;28;20080;-26
2023/12/27 11:21:59;;;;;;;3.13;1.53;;;12.50;99.90;;;;;;5034761;28;20040;-23
2023/12/27 11:24:25;;;;;;;3.30;1.60;;;12.50;99.90;;;;;;5037313;28;20025;-23
2023/12/27 11:27:01;;;;;;;3.40;2.05;;;12.50;99.90;;;;;;5038215;28;20075;-23
2023/12/27 11:29:28;;;;;;;3.65;1.73;;;12.50;99.90;;;;;;5035019;28;20108;-23
2023/12/27 11:31:55;;;;;;;4.33;1.70;;;12.50;99.90;;;;;;5036853;28;20040;-22
2023/12/27 11:34:20;;;;;;;4.50;1.60;;;12.60;99.90;;;;;;5017283;28;20039;-23
2023/12/27 11:36:46;;;;;;;5.38;2.38;;;12.50;99.90;;;;;;5036974;28;20036;-22
2023/12/27 11:39:18;;;;;;;3.93;2.07;;;12.60;99.90;;;;;;5024469;28;20033;-24
2023/12/27 11:41:44;;;;;;;3.65;2.03;;;12.60;99.90;;;;;;5038449;28;20029;-23
2023/12/27 11:44:13;;;;;;;4.45;1.80;;;12.60;99.90;;;;;;5035327;28;20067;-22
2023/12/27 11:46:39;;;;;;;3.13;1.80;;;12.70;99.90;;;;;;5034519;28;20079;-27
2023/12/27 11:49:04;;;;;;;4.13;2.10;;;12.70;99.90;;;;;;5036920;28;20111;-28
2023/12/27 11:51:34;;;;;;;3.13;1.70;;;12.70;99.90;;;;;;5038087;28;20401;-26
2023/12/27 11:54:01;;;;;;;3.60;1.83;;;12.70;99.90;;;;;;5036365;28;20036;-26
2023/12/27 11:56:34;;;;;;;3.00;1.90;;;12.80;99.90;;;;;;5036408;28;20471;-23
2023/12/27 11:59:01;;;;;;;4.00;2.10;;;12.80;99.90;;;;;;5036036;28;20025;-25
2023/12/27 12:01:35;;;;;;;3.10;1.85;;;12.80;99.90;;;;;;5038403;28;20060;-22
2023/12/27 12:04:06;;;;;;;2.90;1.73;;;12.90;99.90;;;;;;5038593;28;20064;-24
2023/12/27 12:06:51;;;;;;;3.43;1.50;;;12.90;99.90;;;;;;5037265;28;20029;-22
2023/12/27 12:09:19;;;;;;;2.42;1.60;;;12.80;99.90;;;;;;5035934;28;20033;-24
2023/12/27 12:11:45;;;;;;;3.25;1.52;;;12.80;99.90;;;;;;5039338;28;20065;-25
2023/12/27 12:14:11;;;;;;;3.50;2.05;;;12.80;99.90;;;;;;5038550;28;20053;-23
2023/12/27 12:16:38;;;;;;;3.28;1.58;;;12.90;99.90;;;;;;5037216;28;20433;-23
2023/12/27 12:19:08;;;;;;;3.00;1.40;;;12.80;99.90;;;;;;5038921;28;20542;-24
2023/12/27 12:21:34;;;;;;;3.33;1.77;;;12.80;99.90;;;;;;5040167;28;20542;-23
2023/12/27 12:24:09;;;;;;;3.85;1.80;;;12.80;99.90;;;;;;5033409;28;20372;-22
2023/12/27 12:26:36;;;;;;;2.67;1.60;;;12.80;99.90;;;;;;5032969;28;20106;-24
2023/12/27 12:29:03;;;;;;;2.50;1.58;;;12.80;99.90;;;;;;5032929;28;20045;-26
2023/12/27 12:31:31;;;;;;;3.97;1.63;;;12.80;99.90;;;;;;5037255;28;20039;-23
2023/12/27 12:33:57;;;;;;;2.72;1.50;;;12.70;99.90;;;;;;5041443;28;20554;-26
2023/12/27 12:36:24;;;;;;;4.53;2.05;;;12.70;99.90;;;;;;5036226;28;20026;-24
2023/12/27 12:38:50;;;;;;;3.40;1.60;;;12.70;99.90;;;;;;5037948;28;20531;-23
2023/12/27 12:41:16;;;;;;;3.00;1.83;;;12.70;99.90;;;;;;5036308;28;20365;-24
2023/12/27 12:43:43;;;;;;;3.45;1.50;;;12.60;99.90;;;;;;5033287;28;20399;-24
2023/12/27 12:46:11;;;;;;;2.60;1.65;;;12.70;99.90;;;;;;5032683;28;20025;-23
2023/12/27 12:48:37;;;;;;;2.13;1.30;;;12.70;99.90;;;;;;5037529;28;20192;-22